KDEC/DEC METAR and TAF weather

Enter ICAO airport designator
Station Type Date Time Source
KDEC METAR 2021/07/29 01:54 UTC NOAA

KDEC 290154Z 22006KT 10SM CLR 27/24 A3000 RMK AO2 SLP153 T02670244


Station Type Date Time Source
KDEC Decoded METAR 2021/07/29 01:54 UTC NOAA

DECATUR AIRPORT, IL, United States (KDEC) 39-50N 88-52W 207M
Jul 28, 2021 - 09:54 PM EDT / 2021.07.29 0154 UTC
Wind: from the SW (220 degrees) at 7 MPH (6 KT):0
Visibility: 10 mile(s):0
Sky conditions: clear
Temperature: 80.1 F (26.7 C)
Dew Point: 75.9 F (24.4 C)
Relative Humidity: 87%
Pressure (altimeter): 30 in. Hg (1015 hPa)
ob: KDEC 290154Z 22006KT 10SM CLR 27/24 A3000 RMK AO2 SLP153 T02670244
cycle: 2

Station Type Date Time Source
KDEC TAF 2021/07/28 18:22 UTC NOAA

TAF KDEC 281720Z 2818/2918 25007KT P6SM SCT035 SCT250
FM290100 22006KT P6SM SCT250
FM291400 27013G21KT P6SM BKN200

Example: see airport list